createdAt,value
2018-09-18T00:01:09.793Z,-73
2018-09-18T00:03:38.111Z,-73
2018-09-18T00:06:07.137Z,-74
2018-09-18T00:08:35.443Z,-74
2018-09-18T00:11:03.739Z,-75
2018-09-18T00:13:32.025Z,-74
2018-09-18T00:16:00.185Z,-73
2018-09-18T00:18:28.346Z,-74
2018-09-18T00:20:56.563Z,-74
2018-09-18T00:23:24.937Z,-74
2018-09-18T00:25:53.143Z,-74
2018-09-18T00:28:21.337Z,-74
2018-09-18T00:30:49.764Z,-74
2018-09-18T00:33:17.927Z,-75
2018-09-18T00:35:46.063Z,-74
2018-09-18T00:38:14.452Z,-75
2018-09-18T00:40:42.610Z,-73
2018-09-18T00:43:10.954Z,-73
2018-09-18T00:45:39.303Z,-75
2018-09-18T00:48:07.675Z,-73
2018-09-18T00:50:35.810Z,-74
2018-09-18T00:53:03.953Z,-72
2018-09-18T00:55:32.263Z,-72
2018-09-18T00:58:00.448Z,-72
2018-09-18T01:00:28.755Z,-72
2018-09-18T01:02:56.993Z,-72
2018-09-18T01:05:25.477Z,-72
2018-09-18T01:07:53.738Z,-71
2018-09-18T01:10:21.976Z,-72
2018-09-18T01:12:50.290Z,-72
2018-09-18T01:15:18.651Z,-72
2018-09-18T01:17:46.776Z,-72
2018-09-18T01:20:15.146Z,-71
2018-09-18T01:22:43.923Z,-70
2018-09-18T01:25:12.081Z,-72
2018-09-18T01:27:40.286Z,-72
2018-09-18T01:30:08.554Z,-73
2018-09-18T01:32:36.773Z,-72
2018-09-18T01:35:05.197Z,-71
2018-09-18T01:37:33.300Z,-72
2018-09-18T01:40:01.622Z,-71
2018-09-18T01:42:29.791Z,-72
2018-09-18T01:44:58.768Z,-72
2018-09-18T01:47:26.950Z,-72
2018-09-18T01:49:55.124Z,-72
2018-09-18T01:52:23.484Z,-71
2018-09-18T01:54:51.963Z,-74
2018-09-18T01:57:20.205Z,-72
2018-09-18T01:59:49.291Z,-74
2018-09-18T02:02:17.465Z,-73
2018-09-18T02:04:45.565Z,-72
2018-09-18T02:07:13.725Z,-72
2018-09-18T02:09:42.025Z,-71
2018-09-18T02:12:10.223Z,-72
2018-09-18T02:14:38.519Z,-71
2018-09-18T02:17:06.697Z,-71
2018-09-18T02:19:34.937Z,-70
2018-09-18T02:22:03.194Z,-71
2018-09-18T02:24:31.485Z,-71
2018-09-18T02:26:59.675Z,-71
2018-09-18T02:29:27.911Z,-72
2018-09-18T02:31:56.195Z,-71
2018-09-18T02:34:24.614Z,-71
2018-09-18T02:36:52.956Z,-71
2018-09-18T02:39:21.275Z,-72
2018-09-18T02:41:49.521Z,-71
2018-09-18T02:44:17.614Z,-71
2018-09-18T02:46:46.124Z,-71
2018-09-18T02:49:14.283Z,-71
2018-09-18T02:51:42.378Z,-71
2018-09-18T02:54:10.505Z,-71
2018-09-18T02:56:39.030Z,-71
2018-09-18T02:59:07.216Z,-71
2018-09-18T03:01:35.598Z,-71
2018-09-18T03:04:03.797Z,-72
2018-09-18T03:06:32.003Z,-72
2018-09-18T03:09:00.188Z,-73
2018-09-18T03:11:28.716Z,-73
2018-09-18T03:13:56.764Z,-72
2018-09-18T03:16:25.110Z,-72
2018-09-18T03:18:53.262Z,-75
2018-09-18T03:21:21.562Z,-72
2018-09-18T03:23:49.778Z,-72
2018-09-18T03:26:18.110Z,-69
2018-09-18T03:28:46.344Z,-71
2018-09-18T03:31:14.423Z,-71
2018-09-18T03:33:42.663Z,-70
2018-09-18T03:36:11.155Z,-72
2018-09-18T03:38:39.293Z,-72
2018-09-18T03:41:08.597Z,-72
2018-09-18T03:43:36.726Z,-72
2018-09-18T03:46:05.104Z,-72
2018-09-18T03:48:33.333Z,-72
2018-09-18T03:51:01.697Z,-70
2018-09-18T03:53:29.836Z,-73
2018-09-18T03:55:58.057Z,-71
2018-09-18T03:58:26.336Z,-71
2018-09-18T04:00:54.571Z,-72
2018-09-18T04:03:22.711Z,-72
2018-09-18T04:05:51.018Z,-71
2018-09-18T04:08:19.135Z,-72
2018-09-18T04:10:48.003Z,-71
2018-09-18T04:13:16.274Z,-72
2018-09-18T04:15:44.383Z,-71
2018-09-18T04:18:15.539Z,-71
2018-09-18T04:20:43.713Z,-71
2018-09-18T04:23:11.813Z,-71
2018-09-18T04:25:40.086Z,-71
2018-09-18T04:28:08.417Z,-72
2018-09-18T04:30:36.535Z,-73
2018-09-18T04:33:04.664Z,-72
2018-09-18T04:35:32.857Z,-72
2018-09-18T04:38:01.125Z,-72
2018-09-18T04:40:29.298Z,-72
2018-09-18T04:42:57.511Z,-72
2018-09-18T04:45:25.630Z,-71
2018-09-18T04:47:53.818Z,-72
2018-09-18T04:50:22.051Z,-72
2018-09-18T04:52:50.240Z,-72
2018-09-18T04:55:18.412Z,-71
2018-09-18T04:57:46.514Z,-73
2018-09-18T05:00:15.258Z,-71
2018-09-18T05:02:43.412Z,-68
2018-09-18T05:05:11.664Z,-68
2018-09-18T05:07:39.838Z,-69
2018-09-18T05:10:08.110Z,-69
2018-09-18T05:12:36.406Z,-70
2018-09-18T05:15:04.652Z,-69
2018-09-18T05:17:32.963Z,-68
2018-09-18T05:20:01.074Z,-69
2018-09-18T05:22:29.478Z,-68
2018-09-18T05:24:57.624Z,-69
2018-09-18T05:27:26.035Z,-69
2018-09-18T05:29:54.178Z,-68
2018-09-18T05:32:22.705Z,-67
2018-09-18T05:34:50.975Z,-69
2018-09-18T05:37:19.379Z,-70
2018-09-18T05:39:47.689Z,-70
2018-09-18T05:42:15.993Z,-69
2018-09-18T05:44:44.153Z,-70
2018-09-18T05:47:12.763Z,-69
2018-09-18T05:49:41.312Z,-68
2018-09-18T05:52:09.683Z,-69
2018-09-18T05:54:38.035Z,-68
2018-09-18T05:57:06.370Z,-69
2018-09-18T05:59:34.671Z,-68
2018-09-18T06:02:02.835Z,-71
2018-09-18T06:04:31.093Z,-69
2018-09-18T06:06:59.335Z,-69
2018-09-18T06:09:27.579Z,-70
2018-09-18T06:11:55.779Z,-70
2018-09-18T06:14:23.983Z,-70
2018-09-18T06:16:52.367Z,-71
2018-09-18T06:19:21.267Z,-73
2018-09-18T06:21:49.449Z,-70
2018-09-18T06:24:24.265Z,-70
2018-09-18T06:26:52.493Z,-70
2018-09-18T06:29:20.849Z,-71
2018-09-18T06:31:48.976Z,-69
2018-09-18T06:34:17.151Z,-69
2018-09-18T06:36:45.403Z,-69
2018-09-18T06:39:13.678Z,-70
2018-09-18T06:41:42.019Z,-70
2018-09-18T06:44:10.123Z,-71
2018-09-18T06:46:38.375Z,-70
2018-09-18T06:49:06.617Z,-70
2018-09-18T06:51:34.753Z,-70
2018-09-18T06:54:02.870Z,-71
2018-09-18T06:56:31.063Z,-70
2018-09-18T06:58:59.436Z,-70
2018-09-18T07:01:27.549Z,-68
2018-09-18T07:03:55.797Z,-70
2018-09-18T07:06:23.981Z,-69
2018-09-18T07:08:52.265Z,-70
2018-09-18T07:14:14.165Z,-69
2018-09-18T07:16:42.449Z,-69
2018-09-18T07:19:10.665Z,-69
2018-09-18T07:21:38.838Z,-71
2018-09-18T07:24:07.030Z,-69
2018-09-18T07:26:35.249Z,-71
2018-09-18T07:29:03.494Z,-69
2018-09-18T07:31:31.594Z,-69
2018-09-18T07:33:59.721Z,-71
2018-09-18T07:36:27.940Z,-71
2018-09-18T07:38:56.203Z,-68
2018-09-18T07:41:24.860Z,-72
2018-09-18T07:43:53.136Z,-69
2018-09-18T07:46:22.013Z,-71
2018-09-18T07:48:50.135Z,-69
2018-09-18T07:51:18.366Z,-69
2018-09-18T07:53:46.515Z,-69
2018-09-18T07:56:14.771Z,-74
2018-09-18T07:58:42.985Z,-70
2018-09-18T08:01:11.372Z,-73
2018-09-18T08:03:39.701Z,-69
2018-09-18T08:06:07.969Z,-78
2018-09-18T08:08:36.198Z,-77
2018-09-18T08:11:04.469Z,-77
2018-09-18T08:13:32.800Z,-80
2018-09-18T08:16:00.980Z,-77
2018-09-18T08:18:29.154Z,-78
2018-09-18T08:20:57.370Z,-76
2018-09-18T08:23:25.666Z,-77
2018-09-18T08:25:53.876Z,-77
2018-09-18T08:28:22.772Z,-77
2018-09-18T08:30:50.940Z,-76
2018-09-18T08:33:19.133Z,-78
2018-09-18T08:35:47.268Z,-78
2018-09-18T08:38:15.532Z,-79
2018-09-18T08:40:43.750Z,-78
2018-09-18T08:43:12.582Z,-77
2018-09-18T08:45:40.784Z,-77
2018-09-18T08:48:09.118Z,-78
2018-09-18T08:50:37.354Z,-78
2018-09-18T08:53:05.637Z,-78
2018-09-18T08:55:33.823Z,-77
2018-09-18T08:58:02.064Z,-79
2018-09-18T09:00:30.370Z,-78
2018-09-18T09:02:58.575Z,-80
2018-09-18T09:05:26.734Z,-78
2018-09-18T09:07:55.153Z,-78
2018-09-18T09:10:23.369Z,-79
2018-09-18T09:12:51.456Z,-78
2018-09-18T09:15:19.771Z,-79
2018-09-18T09:17:48.021Z,-79
2018-09-18T09:20:16.258Z,-82
2018-09-18T09:22:51.173Z,-79
2018-09-18T09:25:19.509Z,-79
2018-09-18T09:27:48.029Z,-80
2018-09-18T09:30:16.176Z,-80
2018-09-18T09:32:44.325Z,-79
2018-09-18T09:35:12.582Z,-80
2018-09-18T09:37:40.871Z,-81
2018-09-18T09:40:09.097Z,-80
2018-09-18T09:42:37.331Z,-80
2018-09-18T09:45:05.688Z,-80
2018-09-18T09:47:33.769Z,-79
2018-09-18T09:50:02.033Z,-82
2018-09-18T09:52:30.365Z,-78
2018-09-18T09:54:58.593Z,-79
2018-09-18T09:57:26.822Z,-79
2018-09-18T09:59:54.965Z,-80
2018-09-18T10:02:28.560Z,-80
2018-09-18T10:04:57.906Z,-81
2018-09-18T10:07:26.071Z,-79
2018-09-18T10:09:54.273Z,-79
2018-09-18T10:12:22.470Z,-80
2018-09-18T10:14:50.771Z,-81
2018-09-18T10:17:19.617Z,-81
2018-09-18T10:19:47.837Z,-79
2018-09-18T10:22:16.065Z,-79
2018-09-18T10:24:44.324Z,-80
2018-09-18T10:27:12.570Z,-80
2018-09-18T10:29:40.798Z,-80
2018-09-18T10:32:08.947Z,-80
2018-09-18T10:34:37.316Z,-80
2018-09-18T10:37:05.563Z,-79
2018-09-18T10:39:33.834Z,-71
2018-09-18T10:42:02.008Z,-70
2018-09-18T10:44:30.189Z,-71
2018-09-18T10:46:58.321Z,-73
2018-09-18T10:49:27.327Z,-71
2018-09-18T10:51:55.712Z,-71
2018-09-18T10:54:23.936Z,-71
2018-09-18T10:56:52.232Z,-71
2018-09-18T10:59:20.485Z,-71
2018-09-18T11:01:48.794Z,-72
2018-09-18T11:04:16.873Z,-71
2018-09-18T11:06:45.035Z,-72
2018-09-18T11:09:13.259Z,-71
2018-09-18T11:11:41.650Z,-70
2018-09-18T11:14:11.409Z,-71
2018-09-18T11:16:39.633Z,-71
2018-09-18T11:19:08.521Z,-71
2018-09-18T11:21:36.954Z,-72
2018-09-18T11:24:05.510Z,-73
2018-09-18T11:26:33.763Z,-71
2018-09-18T11:29:02.734Z,-70
2018-09-18T11:31:30.995Z,-70
2018-09-18T11:33:59.199Z,-71
2018-09-18T11:36:28.093Z,-71
2018-09-18T11:38:56.968Z,-72
2018-09-18T11:41:25.515Z,-70
2018-09-18T11:43:53.975Z,-73
2018-09-18T11:46:22.181Z,-73
2018-09-18T11:48:50.419Z,-70
2018-09-18T11:51:18.954Z,-73
2018-09-18T11:53:47.111Z,-72
2018-09-18T11:56:15.343Z,-72
2018-09-18T11:58:43.581Z,-73
2018-09-18T12:01:11.921Z,-73
2018-09-18T12:03:40.051Z,-72
2018-09-18T12:06:08.292Z,-71
2018-09-18T12:08:43.247Z,-72
2018-09-18T12:11:11.561Z,-72
2018-09-18T12:13:39.753Z,-74
2018-09-18T12:16:08.119Z,-71
2018-09-18T12:18:36.261Z,-72
2018-09-18T12:21:05.082Z,-71
2018-09-18T12:23:33.199Z,-70
2018-09-18T12:26:01.397Z,-80
2018-09-18T12:28:29.569Z,-80
2018-09-18T12:30:57.726Z,-81
2018-09-18T12:33:25.936Z,-84
2018-09-18T12:35:54.112Z,-80
2018-09-18T12:38:22.310Z,-82
2018-09-18T12:40:50.516Z,-80
2018-09-18T12:43:18.780Z,-80
2018-09-18T12:45:47.002Z,-82
2018-09-18T12:48:16.206Z,-81
2018-09-18T12:50:44.396Z,-81
2018-09-18T12:53:12.510Z,-81
2018-09-18T12:55:40.702Z,-80
2018-09-18T12:58:08.894Z,-80
2018-09-18T13:00:37.008Z,-80
2018-09-18T13:03:05.200Z,-78
2018-09-18T13:05:33.452Z,-80
2018-09-18T13:08:01.746Z,-80
2018-09-18T13:10:29.918Z,-81
2018-09-18T13:12:58.812Z,-81
2018-09-18T13:15:27.043Z,-80
2018-09-18T13:17:55.298Z,-80
2018-09-18T13:20:23.499Z,-83
2018-09-18T13:22:52.207Z,-81
2018-09-18T13:25:20.457Z,-81
2018-09-18T13:27:48.755Z,-79
2018-09-18T13:30:17.104Z,-81
2018-09-18T13:32:45.442Z,-81
2018-09-18T13:35:13.543Z,-81
2018-09-18T13:37:41.743Z,-80
2018-09-18T13:40:10.033Z,-80
2018-09-18T13:42:38.187Z,-81
2018-09-18T13:45:06.453Z,-80
2018-09-18T13:47:34.583Z,-80
2018-09-18T13:50:02.875Z,-80
2018-09-18T13:52:31.072Z,-80
2018-09-18T13:54:59.273Z,-81
2018-09-18T13:57:27.654Z,-80
2018-09-18T13:59:55.914Z,-81
2018-09-18T14:02:24.099Z,-80
2018-09-18T14:04:52.365Z,-82
2018-09-18T14:07:20.542Z,-82
2018-09-18T14:09:48.862Z,-81
2018-09-18T14:12:17.441Z,-80
2018-09-18T14:14:45.710Z,-78
2018-09-18T14:17:13.892Z,-80
2018-09-18T14:19:42.301Z,-79
2018-09-18T14:22:10.786Z,-79
2018-09-18T14:24:39.653Z,-81
2018-09-18T14:27:07.864Z,-79
2018-09-18T14:29:36.028Z,-79
2018-09-18T14:32:04.249Z,-79
2018-09-18T14:34:32.410Z,-80
2018-09-18T14:37:00.591Z,-81
2018-09-18T14:39:28.780Z,-79
2018-09-18T14:41:56.927Z,-77
2018-09-18T14:44:25.085Z,-81
2018-09-18T14:46:53.237Z,-81
2018-09-18T14:49:21.501Z,-80
2018-09-18T14:51:50.012Z,-80
2018-09-18T14:54:18.221Z,-81
2018-09-18T14:56:46.417Z,-79
2018-09-18T14:59:14.645Z,-80
2018-09-18T15:01:43.033Z,-81
2018-09-18T15:04:11.235Z,-79
2018-09-18T15:06:39.439Z,-80
2018-09-18T15:09:09.278Z,-80
2018-09-18T15:11:37.482Z,-80
2018-09-18T15:14:05.868Z,-81
2018-09-18T15:16:34.381Z,-79
2018-09-18T15:19:02.586Z,-79
2018-09-18T15:21:30.848Z,-80
2018-09-18T15:23:58.932Z,-78
2018-09-18T15:26:27.074Z,-79
2018-09-18T15:28:55.252Z,-79
2018-09-18T15:31:23.521Z,-78
2018-09-18T15:33:51.834Z,-79
2018-09-18T15:36:20.076Z,-77
2018-09-18T15:38:48.243Z,-81
2018-09-18T15:41:16.473Z,-80
2018-09-18T15:43:44.695Z,-78
2018-09-18T15:46:12.945Z,-78
2018-09-18T15:48:41.126Z,-76
2018-09-18T15:51:09.452Z,-78
2018-09-18T15:53:37.596Z,-79
2018-09-18T15:56:05.873Z,-78
2018-09-18T15:58:34.009Z,-79
2018-09-18T16:01:02.133Z,-79
2018-09-18T16:03:30.340Z,-78
2018-09-18T16:05:58.637Z,-77
2018-09-18T16:08:27.162Z,-79
2018-09-18T16:10:55.423Z,-77
2018-09-18T16:13:23.767Z,-76
2018-09-18T16:15:51.997Z,-78
2018-09-18T16:18:20.498Z,-79
2018-09-18T16:20:48.917Z,-80
2018-09-18T16:23:17.133Z,-78
2018-09-18T16:25:46.071Z,-79
2018-09-18T16:28:14.258Z,-78
2018-09-18T16:30:43.154Z,-77
2018-09-18T16:33:11.380Z,-77
2018-09-18T16:35:39.649Z,-79
2018-09-18T16:38:08.292Z,-78
2018-09-18T16:40:36.750Z,-82
2018-09-18T16:43:04.945Z,-81
2018-09-18T16:45:33.201Z,-81
2018-09-18T16:48:01.506Z,-81
2018-09-18T16:50:29.712Z,-79
2018-09-18T16:52:58.561Z,-80
2018-09-18T16:55:26.742Z,-80
2018-09-18T16:57:55.048Z,-79
2018-09-18T17:00:23.388Z,-77
2018-09-18T17:02:51.580Z,-80
2018-09-18T17:05:19.950Z,-81
2018-09-18T17:07:48.428Z,-80
2018-09-18T17:10:16.608Z,-78
2018-09-18T17:12:44.826Z,-79
2018-09-18T17:15:13.011Z,-80
2018-09-18T17:17:41.148Z,-80
2018-09-18T17:20:09.596Z,-79
2018-09-18T17:22:37.892Z,-79
2018-09-18T17:25:06.144Z,-79
2018-09-18T17:27:34.382Z,-79
2018-09-18T17:30:02.695Z,-79
2018-09-18T17:32:30.849Z,-79
2018-09-18T17:34:59.126Z,-79
2018-09-18T17:37:27.446Z,-79
2018-09-18T17:39:55.713Z,-81
2018-09-18T17:42:23.846Z,-80
2018-09-18T17:44:52.082Z,-78
2018-09-18T17:47:20.287Z,-81
2018-09-18T17:49:48.461Z,-80
2018-09-18T17:52:16.577Z,-78
2018-09-18T17:54:44.709Z,-80
2018-09-18T17:57:12.887Z,-79
2018-09-18T17:59:41.228Z,-80
2018-09-18T18:02:09.706Z,-78
2018-09-18T18:04:38.208Z,-79
2018-09-18T18:07:06.650Z,-79
2018-09-18T18:09:34.730Z,-78
2018-09-18T18:12:02.999Z,-79
2018-09-18T18:14:31.261Z,-79
2018-09-18T18:16:59.445Z,-81
2018-09-18T18:19:27.644Z,-82
2018-09-18T18:21:55.844Z,-80
2018-09-18T18:24:24.216Z,-79
2018-09-18T18:26:52.490Z,-79
2018-09-18T18:29:20.681Z,-79
2018-09-18T18:31:49.004Z,-77
2018-09-18T18:34:17.233Z,-79
2018-09-18T18:36:45.479Z,-80
2018-09-18T18:39:13.746Z,-80
2018-09-18T18:41:41.986Z,-81
2018-09-18T18:44:10.088Z,-80
2018-09-18T18:46:38.187Z,-80
2018-09-18T18:49:06.553Z,-82
2018-09-18T18:51:34.737Z,-79
2018-09-18T18:54:03.062Z,-81
2018-09-18T18:56:31.261Z,-81
2018-09-18T18:58:59.599Z,-80
2018-09-18T19:01:27.731Z,-79
2018-09-18T19:03:55.921Z,-79
2018-09-18T19:06:24.269Z,-79
2018-09-18T19:08:52.418Z,-81
2018-09-18T19:11:20.719Z,-78
2018-09-18T19:13:48.945Z,-80
2018-09-18T19:16:17.226Z,-77
2018-09-18T19:18:45.463Z,-80
2018-09-18T19:21:13.669Z,-79
2018-09-18T19:23:41.894Z,-82
2018-09-18T19:26:10.807Z,-80
2018-09-18T19:28:39.324Z,-79
2018-09-18T19:31:08.804Z,-80
2018-09-18T19:33:37.141Z,-82
2018-09-18T19:36:05.390Z,-80
2018-09-18T19:38:33.612Z,-81
2018-09-18T19:41:01.758Z,-79
2018-09-18T19:43:30.028Z,-81
2018-09-18T19:45:58.177Z,-79
2018-09-18T19:48:26.402Z,-81
2018-09-18T19:50:54.566Z,-80
2018-09-18T19:53:22.684Z,-80
2018-09-18T19:55:50.844Z,-80
2018-09-18T19:58:19.016Z,-80
2018-09-18T20:00:48.020Z,-79
2018-09-18T20:03:16.165Z,-81
2018-09-18T20:05:44.368Z,-77
2018-09-18T20:08:12.495Z,-79
2018-09-18T20:10:40.741Z,-79
2018-09-18T20:13:08.979Z,-80
2018-09-18T20:15:37.279Z,-80
2018-09-18T20:18:05.490Z,-79
2018-09-18T20:20:33.677Z,-79
2018-09-18T20:23:01.837Z,-79
2018-09-18T20:25:30.190Z,-79
2018-09-18T20:27:58.337Z,-80
2018-09-18T20:30:26.554Z,-81
2018-09-18T20:32:54.770Z,-79
2018-09-18T20:35:23.189Z,-77
2018-09-18T20:37:51.388Z,-78
2018-09-18T20:40:19.571Z,-78
2018-09-18T20:42:47.802Z,-77
2018-09-18T20:45:16.009Z,-77
2018-09-18T20:47:44.251Z,-78
2018-09-18T20:50:12.494Z,-75
2018-09-18T20:52:40.836Z,-76
2018-09-18T20:55:10.577Z,-77
2018-09-18T20:57:40.181Z,-74
2018-09-18T21:00:09.798Z,-76
2018-09-18T21:02:40.117Z,-75
2018-09-18T21:05:08.986Z,-76
2018-09-18T21:07:37.612Z,-78
2018-09-18T21:10:06.055Z,-76
2018-09-18T21:12:34.404Z,-76
2018-09-18T21:15:02.704Z,-76
2018-09-18T21:17:31.221Z,-76
2018-09-18T21:19:59.420Z,-76
2018-09-18T21:22:27.853Z,-76
2018-09-18T21:25:12.074Z,-74
2018-09-18T21:27:40.879Z,-74
2018-09-18T21:30:09.099Z,-76
2018-09-18T21:32:37.818Z,-76
2018-09-18T21:35:06.311Z,-77
2018-09-18T21:37:34.674Z,-76
2018-09-18T21:40:02.868Z,-77
2018-09-18T21:42:31.261Z,-75
2018-09-18T21:44:59.810Z,-79
2018-09-18T21:47:28.173Z,-79
2018-09-18T21:49:56.410Z,-78
2018-09-18T21:52:25.199Z,-77
2018-09-18T21:55:00.185Z,-76
2018-09-18T21:57:29.493Z,-78
2018-09-18T21:59:57.732Z,-78
2018-09-18T22:02:26.012Z,-80
2018-09-18T22:04:54.238Z,-77
2018-09-18T22:07:23.324Z,-78
2018-09-18T22:09:51.635Z,-75
2018-09-18T22:12:20.027Z,-80
2018-09-18T22:14:48.248Z,-78
2018-09-18T22:17:16.555Z,-78
2018-09-18T22:19:44.780Z,-79
2018-09-18T22:22:13.209Z,-79
2018-09-18T22:24:41.311Z,-75
2018-09-18T22:27:09.683Z,-77
2018-09-18T22:29:37.816Z,-75
2018-09-18T22:32:06.427Z,-76
2018-09-18T22:34:34.729Z,-76
2018-09-18T22:37:03.284Z,-77
2018-09-18T22:39:31.457Z,-75
2018-09-18T22:42:00.545Z,-75
2018-09-18T22:44:28.698Z,-76
2018-09-18T22:46:57.130Z,-75
2018-09-18T22:49:25.285Z,-75
2018-09-18T22:51:53.597Z,-75
2018-09-18T22:54:21.945Z,-75
2018-09-18T22:56:50.376Z,-74
2018-09-18T22:59:19.100Z,-75
2018-09-18T23:01:47.407Z,-74
2018-09-18T23:04:15.577Z,-74
2018-09-18T23:06:43.937Z,-75
2018-09-18T23:09:12.135Z,-75
2018-09-18T23:11:40.472Z,-74
2018-09-18T23:14:08.995Z,-74
2018-09-18T23:16:37.274Z,-74
2018-09-18T23:19:05.600Z,-75
2018-09-18T23:21:33.927Z,-75
2018-09-18T23:24:02.437Z,-75
2018-09-18T23:26:30.672Z,-75
2018-09-18T23:28:59.253Z,-75
2018-09-18T23:31:28.159Z,-74
2018-09-18T23:33:56.382Z,-73
2018-09-18T23:36:24.590Z,-74
2018-09-18T23:38:52.948Z,-75
2018-09-18T23:41:21.224Z,-73
2018-09-18T23:43:49.542Z,-74
2018-09-18T23:46:17.932Z,-75
2018-09-18T23:48:46.238Z,-73
2018-09-18T23:51:14.434Z,-74
2018-09-18T23:53:42.723Z,-74
2018-09-18T23:56:10.918Z,-75
2018-09-18T23:58:39.348Z,-74
